createdAt,value
2022-08-01T00:00:24.293Z,20.05
2022-08-01T00:15:24.256Z,20.03
2022-08-01T00:30:24.252Z,19.83
2022-08-01T00:45:33.319Z,19.67
2022-08-01T01:00:34.792Z,19.17
2022-08-01T01:15:23.476Z,18.90
2022-08-01T01:30:23.456Z,19.20
2022-08-01T01:45:23.386Z,18.78
2022-08-01T02:00:23.702Z,18.80
2022-08-01T02:15:23.456Z,18.88
2022-08-01T02:30:23.495Z,18.67
2022-08-01T02:45:23.518Z,18.22
2022-08-01T03:00:24.875Z,18.02
2022-08-01T03:15:23.545Z,18.13
2022-08-01T03:30:23.583Z,17.83
2022-08-01T03:45:23.481Z,17.62
2022-08-01T04:00:23.617Z,17.40
2022-08-01T04:15:23.570Z,17.45
2022-08-01T04:30:23.707Z,17.00
2022-08-01T04:45:23.746Z,17.23
2022-08-01T05:00:23.821Z,17.23
2022-08-01T05:15:23.704Z,17.15
2022-08-01T05:30:23.737Z,17.25
2022-08-01T05:45:23.735Z,17.58
2022-08-01T06:00:24.909Z,17.65
2022-08-01T06:15:23.944Z,18.12
2022-08-01T06:30:23.779Z,18.83
2022-08-01T06:45:23.841Z,20.10
2022-08-01T07:00:24.033Z,20.50
2022-08-01T07:15:24.041Z,21.97
2022-08-01T07:30:23.925Z,24.25
2022-08-01T07:45:23.985Z,25.22
2022-08-01T08:00:23.948Z,25.93
2022-08-01T08:15:23.958Z,28.70
2022-08-01T08:30:24.211Z,27.30
2022-08-01T08:45:52.175Z,26.23
2022-08-01T09:00:24.058Z,26.80
2022-08-01T09:15:24.343Z,25.87
2022-08-01T09:30:26.210Z,26.23
2022-08-01T09:45:24.359Z,26.13
2022-08-01T10:00:44.422Z,26.15
2022-08-01T10:15:24.204Z,26.92
2022-08-01T10:30:33.297Z,26.43
2022-08-01T10:45:33.379Z,26.77
2022-08-01T11:00:34.479Z,26.47
2022-08-01T11:15:30.244Z,26.40
2022-08-01T11:30:23.358Z,26.33
2022-08-01T11:45:23.583Z,26.47
2022-08-01T12:00:23.460Z,26.70
2022-08-01T12:15:23.556Z,26.40
2022-08-01T12:30:23.375Z,26.30
2022-08-01T12:45:23.454Z,26.67
2022-08-01T13:00:23.961Z,27.55
2022-08-01T13:15:23.814Z,27.70
2022-08-01T13:30:23.640Z,28.17
2022-08-01T13:45:23.477Z,28.42
2022-08-01T14:00:25.741Z,28.60
2022-08-01T14:15:36.737Z,28.60
2022-08-01T14:30:23.689Z,28.38
2022-08-01T14:45:23.592Z,28.00
2022-08-01T15:00:23.844Z,25.50
2022-08-01T15:15:23.725Z,25.65
2022-08-01T15:30:27.102Z,25.65
2022-08-01T15:45:46.410Z,25.65
2022-08-01T16:00:23.709Z,25.48
2022-08-01T16:15:36.231Z,25.17
2022-08-01T16:30:23.803Z,25.35
2022-08-01T16:45:23.850Z,24.98
2022-08-01T17:00:23.872Z,24.93
2022-08-01T17:15:24.241Z,24.70
2022-08-01T17:30:24.122Z,24.35
2022-08-01T17:45:27.511Z,24.18
2022-08-01T18:00:24.233Z,23.80
2022-08-01T18:15:26.796Z,23.97
2022-08-01T18:30:24.186Z,23.40
2022-08-01T18:45:24.114Z,23.52
2022-08-01T19:00:24.755Z,23.17
2022-08-01T19:15:24.102Z,22.60
2022-08-01T19:30:24.101Z,22.63
2022-08-01T19:45:24.128Z,21.98
2022-08-01T20:00:28.278Z,21.88
2022-08-01T20:15:24.259Z,21.85
2022-08-01T20:30:24.280Z,21.88
2022-08-01T20:45:24.158Z,21.77
2022-08-01T21:00:33.801Z,21.62
2022-08-01T21:15:23.143Z,21.73
2022-08-01T21:30:22.946Z,21.52
2022-08-01T21:45:23.654Z,21.77
2022-08-01T22:00:37.373Z,22.00
2022-08-01T22:15:23.322Z,20.77
2022-08-01T22:30:23.423Z,20.87
2022-08-01T22:45:23.450Z,20.77
2022-08-01T23:00:23.475Z,20.58
2022-08-01T23:15:23.463Z,20.27
2022-08-01T23:30:23.230Z,20.08
2022-08-01T23:45:23.321Z,20.02
